George Allen — WDF9749 — position and weather

sailwx.info

Track history (hours):
 
Tides and Currents Weather Stations Pressure Air Temp Water Temp Dewpoint Dewpoint Depression Visibility Wind Speed Wind Dir Waves Ship Positions

George Allen

Owner: Blessey Enterprises, Inc., Harahan, LA. More information available from US FCC via Universal Licensing System and Coast Guard Vessel Documentation Center.

Last reported at 2017-Mar-22 08:28 UTC. Time now 2017-Mar-23 10:25 UTC.
Position N 29°49' W 093°58'.

Length 23 m; draft 3.5 m.

Type: Towing. MMSI: 367508440.

Date/timePositionNaut miles runAvg speedWind from/ knotsBaromVisibWave heightAir tempDewpointWater temp
2017-Mar-22 08:28N 29°49' W 093°58'0 0.0
2017-Mar-22 05:21N 29°49' W 093°58'0 0.0
2017-Mar-22 04:30N 29°49' W 093°58'0 0.0
2017-Mar-21 03:10N 29°49' W 093°58'0 0.0
2017-Mar-21 02:31N 29°49' W 093°58'1 0.1
2017-Mar-20 13:26N 29°49' W 093°59'0 0.0
2017-Mar-20 09:19N 29°49' W 093°59'0 0.0
2017-Mar-20 08:27N 29°49' W 093°59'0 0.0
2017-Mar-20 07:25N 29°49' W 093°59'0 0.0
2017-Mar-20 05:09N 29°49' W 093°59'0 0.0
2017-Mar-20 04:09N 29°49' W 093°59'0 0.0
2017-Mar-20 02:26N 29°49' W 093°59'0 0.0
2017-Mar-20 01:29N 29°49' W 093°59'51 3.2
2017-Mar-19 09:28N 29°32' W 094°54'6 6.2
2017-Mar-19 08:34N 29°36' W 094°57'7 6.6
2017-Mar-19 07:34N 29°42' W 095°01'3 2.4
2017-Mar-19 06:27N 29°44' W 095°03'0 0.1
2017-Mar-19 05:34N 29°44' W 095°03'0 0.0
2017-Mar-18 13:31N 29°44' W 095°03'1 1.2
2017-Mar-18 12:32N 29°45' W 095°04'3 2.2
2017-Mar-18 11:22N 29°47' W 095°05'0 0.0
2017-Mar-18 05:21N 29°47' W 095°05'0 0.0
2017-Mar-18 04:26N 29°47' W 095°05'0 0.0
2017-Mar-18 01:23N 29°47' W 095°05'0 0.0
2017-Mar-18 00:34N 29°47' W 095°05'0 0.0
2017-Mar-17 23:32N 29°47' W 095°05'0 0.0
2017-Mar-17 22:33N 29°47' W 095°05'0 0.1
2017-Mar-17 21:33N 29°47' W 095°05'0 0.1
2017-Mar-17 20:34N 29°47' W 095°05'0 0.0
2017-Mar-17 19:34N 29°47' W 095°05'0 0.0
2017-Mar-17 18:34N 29°47' W 095°05'0 0.0
2017-Mar-17 17:34N 29°47' W 095°05'0 0.0
2017-Mar-17 07:19N 29°47' W 095°05'0 0.0
2017-Mar-16 23:14N 29°47' W 095°05'0 0.0
2017-Mar-16 20:20N 29°47' W 095°05'2 2.1
2017-Mar-16 19:11N 29°46' W 095°07'1 1.6
2017-Mar-16 18:32N 29°45' W 095°06'2 0.2
2017-Mar-16 05:12N 29°47' W 095°05'1 1.9
2017-Mar-16 04:29N 29°46' W 095°05'1 1.1
2017-Mar-16 03:08N 29°47' W 095°05'0 0.0
2017-Mar-16 02:15N 29°47' W 095°05'0 0.1
2017-Mar-16 01:28N 29°47' W 095°04'0 0.1
2017-Mar-15 22:25N 29°47' W 095°05'0 0.0
2017-Mar-15 20:15N 29°47' W 095°05'0 0.0
2017-Mar-15 19:33N 29°47' W 095°05'0 0.0
2017-Mar-15 18:34N 29°47' W 095°05'0 0.0
2017-Mar-15 17:34N 29°47' W 095°05'0 0.0
2017-Mar-15 16:34N 29°47' W 095°05'0 0.0
2017-Mar-15 15:34N 29°47' W 095°05'0 0.0
2017-Mar-15 14:34N 29°47' W 095°05'1 1.0
2017-Mar-15 13:33N 29°46' W 095°05'3 3.5
2017-Mar-15 12:33N 29°44' W 095°02'7 6.8
2017-Mar-15 11:34N 29°38' W 094°58'8 7.5
2017-Mar-15 10:34N 29°32' W 094°53'11 4.9
2017-Mar-15 08:23N 29°24' W 094°45'  
Track history (hours):
 
Tides and Currents Weather Stations Pressure Air Temp Water Temp Dewpoint Dewpoint Depression Visibility Wind Speed Wind Dir Waves Ship Positions

George Allen

Owner: Blessey Enterprises, Inc., Harahan, LA. More information available from US FCC via Universal Licensing System and Coast Guard Vessel Documentation Center.

Last reported at 2017-Mar-22 08:28 UTC. Time now 2017-Mar-23 10:25 UTC.
Position N 29°49' W 093°58'.

Length 23 m; draft 3.5 m.

Type: Towing. MMSI: 367508440.

Date/timePositionNaut miles runAvg speedWind from/ knotsBaromVisibWave heightAir tempDewpointWater temp
2017-Mar-22 08:28N 29°49' W 093°58'0 0.0
2017-Mar-22 05:21N 29°49' W 093°58'0 0.0
2017-Mar-22 04:30N 29°49' W 093°58'0 0.0
2017-Mar-21 03:10N 29°49' W 093°58'0 0.0
2017-Mar-21 02:31N 29°49' W 093°58'1 0.1
2017-Mar-20 13:26N 29°49' W 093°59'0 0.0
2017-Mar-20 09:19N 29°49' W 093°59'0 0.0
2017-Mar-20 08:27N 29°49' W 093°59'0 0.0
2017-Mar-20 07:25N 29°49' W 093°59'0 0.0
2017-Mar-20 05:09N 29°49' W 093°59'0 0.0
2017-Mar-20 04:09N 29°49' W 093°59'0 0.0
2017-Mar-20 02:26N 29°49' W 093°59'0 0.0
2017-Mar-20 01:29N 29°49' W 093°59'51 3.2
2017-Mar-19 09:28N 29°32' W 094°54'6 6.2
2017-Mar-19 08:34N 29°36' W 094°57'7 6.6
2017-Mar-19 07:34N 29°42' W 095°01'3 2.4
2017-Mar-19 06:27N 29°44' W 095°03'0 0.1
2017-Mar-19 05:34N 29°44' W 095°03'0 0.0
2017-Mar-18 13:31N 29°44' W 095°03'1 1.2
2017-Mar-18 12:32N 29°45' W 095°04'3 2.2
2017-Mar-18 11:22N 29°47' W 095°05'0 0.0
2017-Mar-18 05:21N 29°47' W 095°05'0 0.0
2017-Mar-18 04:26N 29°47' W 095°05'0 0.0
2017-Mar-18 01:23N 29°47' W 095°05'0 0.0
2017-Mar-18 00:34N 29°47' W 095°05'0 0.0
2017-Mar-17 23:32N 29°47' W 095°05'0 0.0
2017-Mar-17 22:33N 29°47' W 095°05'0 0.1
2017-Mar-17 21:33N 29°47' W 095°05'0 0.1
2017-Mar-17 20:34N 29°47' W 095°05'0 0.0
2017-Mar-17 19:34N 29°47' W 095°05'0 0.0
2017-Mar-17 18:34N 29°47' W 095°05'0 0.0
2017-Mar-17 17:34N 29°47' W 095°05'0 0.0
2017-Mar-17 07:19N 29°47' W 095°05'0 0.0
2017-Mar-16 23:14N 29°47' W 095°05'0 0.0
2017-Mar-16 20:20N 29°47' W 095°05'2 2.1
2017-Mar-16 19:11N 29°46' W 095°07'1 1.6
2017-Mar-16 18:32N 29°45' W 095°06'2 0.2
2017-Mar-16 05:12N 29°47' W 095°05'1 1.9
2017-Mar-16 04:29N 29°46' W 095°05'1 1.1
2017-Mar-16 03:08N 29°47' W 095°05'0 0.0
2017-Mar-16 02:15N 29°47' W 095°05'0 0.1
2017-Mar-16 01:28N 29°47' W 095°04'0 0.1
2017-Mar-15 22:25N 29°47' W 095°05'0 0.0
2017-Mar-15 20:15N 29°47' W 095°05'0 0.0
2017-Mar-15 19:33N 29°47' W 095°05'0 0.0
2017-Mar-15 18:34N 29°47' W 095°05'0 0.0
2017-Mar-15 17:34N 29°47' W 095°05'0 0.0
2017-Mar-15 16:34N 29°47' W 095°05'0 0.0
2017-Mar-15 15:34N 29°47' W 095°05'0 0.0
2017-Mar-15 14:34N 29°47' W 095°05'1 1.0
2017-Mar-15 13:33N 29°46' W 095°05'3 3.5
2017-Mar-15 12:33N 29°44' W 095°02'7 6.8
2017-Mar-15 11:34N 29°38' W 094°58'8 7.5
2017-Mar-15 10:34N 29°32' W 094°53'11 4.9
2017-Mar-15 08:23N 29°24' W 094°45'  

Dump ship's entire track history